createdAt,value
2019-05-19T00:00:03.108Z,982.31
2019-05-19T00:01:03.262Z,982.29
2019-05-19T00:02:03.429Z,982.27
2019-05-19T00:03:03.602Z,982.28
2019-05-19T00:04:03.770Z,982.31
2019-05-19T00:05:03.938Z,982.28
2019-05-19T00:06:04.112Z,982.30
2019-05-19T00:07:04.284Z,982.33
2019-05-19T00:08:04.466Z,982.30
2019-05-19T00:09:04.623Z,982.33
2019-05-19T00:10:04.821Z,982.34
2019-05-19T00:11:04.980Z,982.31
2019-05-19T00:12:05.152Z,982.31
2019-05-19T00:13:05.351Z,982.27
2019-05-19T00:14:05.493Z,982.23
2019-05-19T00:15:05.697Z,982.26
2019-05-19T00:16:05.829Z,982.25
2019-05-19T00:17:06.002Z,982.27
2019-05-19T00:18:06.171Z,982.24
2019-05-19T00:19:06.343Z,982.26
2019-05-19T00:20:06.517Z,982.22
2019-05-19T00:21:06.686Z,982.20
2019-05-19T00:22:06.849Z,982.27
2019-05-19T00:23:07.018Z,982.25
2019-05-19T00:24:07.187Z,982.27
2019-05-19T00:25:07.354Z,982.25
2019-05-19T00:26:07.533Z,982.24
2019-05-19T00:27:07.694Z,982.21
2019-05-19T00:28:07.861Z,982.23
2019-05-19T00:29:08.026Z,982.19
2019-05-19T00:30:08.193Z,982.17
2019-05-19T00:31:08.371Z,982.17
2019-05-19T00:32:08.533Z,982.12
2019-05-19T00:33:08.706Z,982.11
2019-05-19T00:34:08.870Z,982.13
2019-05-19T00:35:09.041Z,982.10
2019-05-19T00:36:09.209Z,982.07
2019-05-19T00:37:09.380Z,982.03
2019-05-19T00:38:09.559Z,982.04
2019-05-19T00:39:09.723Z,982.03
2019-05-19T00:40:09.896Z,981.98
2019-05-19T00:41:10.064Z,982.00
2019-05-19T00:42:10.230Z,981.97
2019-05-19T00:43:10.399Z,981.96
2019-05-19T00:44:10.571Z,981.93
2019-05-19T00:45:10.779Z,981.90
2019-05-19T00:46:10.950Z,981.92
2019-05-19T00:47:11.128Z,981.90
2019-05-19T00:48:11.297Z,981.94
2019-05-19T00:49:11.467Z,981.94
2019-05-19T00:50:12.315Z,981.94
2019-05-19T00:51:11.861Z,981.95
2019-05-19T00:52:12.025Z,981.90
2019-05-19T00:53:12.193Z,981.91
2019-05-19T00:54:12.358Z,981.93
2019-05-19T00:55:12.527Z,981.86
2019-05-19T00:56:12.693Z,981.87
2019-05-19T00:57:12.859Z,981.86
2019-05-19T00:58:13.036Z,981.86
2019-05-19T00:59:13.198Z,981.86
2019-05-19T01:00:13.371Z,981.86
2019-05-19T01:01:13.538Z,981.87
2019-05-19T01:02:13.709Z,981.83
2019-05-19T01:03:13.873Z,981.85
2019-05-19T01:04:14.045Z,981.76
2019-05-19T01:05:14.219Z,981.79
2019-05-19T01:06:14.383Z,981.78
2019-05-19T01:07:14.552Z,981.77
2019-05-19T01:08:14.717Z,981.78
2019-05-19T01:09:14.888Z,981.79
2019-05-19T01:10:15.051Z,981.75
2019-05-19T01:11:15.228Z,981.75
2019-05-19T01:12:15.393Z,981.77
2019-05-19T01:13:15.568Z,981.76
2019-05-19T01:14:15.744Z,981.76
2019-05-19T01:15:15.907Z,981.74
2019-05-19T01:16:16.088Z,981.72
2019-05-19T01:17:16.251Z,981.71
2019-05-19T01:18:16.428Z,981.65
2019-05-19T01:19:16.590Z,981.68
2019-05-19T01:20:16.759Z,981.68
2019-05-19T01:21:16.939Z,981.65
2019-05-19T01:22:17.115Z,981.65
2019-05-19T01:23:17.270Z,981.60
2019-05-19T01:24:17.445Z,981.64
2019-05-19T01:25:17.611Z,981.62
2019-05-19T01:26:17.777Z,981.61
2019-05-19T01:27:17.959Z,981.56
2019-05-19T01:28:18.126Z,981.61
2019-05-19T01:29:18.292Z,981.59
2019-05-19T01:30:18.464Z,981.62
2019-05-19T01:31:18.633Z,981.61
2019-05-19T01:32:18.800Z,981.60
2019-05-19T01:33:18.969Z,981.59
2019-05-19T01:34:19.140Z,981.60
2019-05-19T01:35:19.307Z,981.58
2019-05-19T01:36:19.483Z,981.59
2019-05-19T01:37:19.651Z,981.57
2019-05-19T01:38:19.817Z,981.56
2019-05-19T01:39:19.988Z,981.58
2019-05-19T01:40:20.147Z,981.59
2019-05-19T01:41:20.327Z,981.57
2019-05-19T01:42:20.490Z,981.57
2019-05-19T01:43:20.657Z,981.56
2019-05-19T01:44:20.826Z,981.56
2019-05-19T01:45:20.993Z,981.55
2019-05-19T01:46:21.168Z,981.58
2019-05-19T01:47:21.334Z,981.59
2019-05-19T01:48:21.504Z,981.57
2019-05-19T01:49:21.680Z,981.61
2019-05-19T01:50:21.849Z,981.57
2019-05-19T01:51:22.012Z,981.56
2019-05-19T01:52:22.185Z,981.53
2019-05-19T01:53:22.363Z,981.56
2019-05-19T01:54:22.525Z,981.54
2019-05-19T01:55:22.696Z,981.57
2019-05-19T01:56:22.866Z,981.57
2019-05-19T01:57:23.034Z,981.54
2019-05-19T01:58:23.207Z,981.55
2019-05-19T01:59:23.378Z,981.57
2019-05-19T02:00:23.547Z,981.57
2019-05-19T02:01:23.722Z,981.56
2019-05-19T02:02:23.890Z,981.59
2019-05-19T02:03:24.059Z,981.60
2019-05-19T02:04:24.231Z,981.61
2019-05-19T02:05:24.401Z,981.57
2019-05-19T02:06:24.571Z,981.56
2019-05-19T02:07:24.764Z,981.57
2019-05-19T02:08:24.905Z,981.55
2019-05-19T02:09:25.098Z,981.51
2019-05-19T02:10:25.273Z,981.54
2019-05-19T02:11:25.446Z,981.51
2019-05-19T02:12:25.618Z,981.50
2019-05-19T02:13:25.788Z,981.55
2019-05-19T02:14:25.968Z,981.49
2019-05-19T02:15:26.130Z,981.52
2019-05-19T02:16:26.303Z,981.48
2019-05-19T02:17:26.480Z,981.52
2019-05-19T02:18:26.647Z,981.48
2019-05-19T02:19:26.821Z,981.51
2019-05-19T02:20:33.206Z,981.47
2019-05-19T02:21:27.143Z,981.48
2019-05-19T02:22:27.313Z,981.48
2019-05-19T02:23:27.481Z,981.47
2019-05-19T02:24:27.645Z,981.47
2019-05-19T02:25:27.819Z,981.44
2019-05-19T02:26:27.986Z,981.47
2019-05-19T02:27:28.150Z,981.43
2019-05-19T02:28:28.323Z,981.41
2019-05-19T02:29:28.493Z,981.42
2019-05-19T02:30:28.668Z,981.42
2019-05-19T02:31:28.837Z,981.41
2019-05-19T02:32:29.005Z,981.41
2019-05-19T02:33:29.172Z,981.41
2019-05-19T02:34:29.338Z,981.42
2019-05-19T02:35:29.511Z,981.39
2019-05-19T02:36:29.687Z,981.39
2019-05-19T02:37:29.851Z,981.36
2019-05-19T02:38:30.021Z,981.37
2019-05-19T02:39:30.191Z,981.37
2019-05-19T02:40:30.359Z,981.39
2019-05-19T02:41:30.530Z,981.40
2019-05-19T02:42:30.703Z,981.45
2019-05-19T02:43:30.871Z,981.45
2019-05-19T02:44:31.040Z,981.44
2019-05-19T02:45:31.204Z,981.46
2019-05-19T02:46:31.389Z,981.47
2019-05-19T02:47:31.557Z,981.46
2019-05-19T02:48:31.724Z,981.47
2019-05-19T02:49:31.888Z,981.49
2019-05-19T02:50:32.053Z,981.55
2019-05-19T02:51:32.244Z,981.53
2019-05-19T02:52:32.408Z,981.52
2019-05-19T02:53:32.604Z,981.54
2019-05-19T02:54:32.750Z,981.56
2019-05-19T02:55:32.924Z,981.53
2019-05-19T02:56:33.101Z,981.52
2019-05-19T02:57:33.265Z,981.54
2019-05-19T02:58:33.434Z,981.51
2019-05-19T02:59:33.607Z,981.54
2019-05-19T03:00:33.778Z,981.56
2019-05-19T03:01:33.953Z,981.55
2019-05-19T03:02:34.130Z,981.54
2019-05-19T03:03:34.286Z,981.53
2019-05-19T03:04:34.461Z,981.48
2019-05-19T03:05:34.622Z,981.50
2019-05-19T03:06:34.801Z,981.49
2019-05-19T03:07:34.966Z,981.49
2019-05-19T03:08:35.135Z,981.48
2019-05-19T03:09:35.304Z,981.46
2019-05-19T03:10:35.477Z,981.51
2019-05-19T03:11:35.643Z,981.47
2019-05-19T03:12:35.819Z,981.47
2019-05-19T03:13:35.983Z,981.51
2019-05-19T03:14:36.154Z,981.49
2019-05-19T03:15:36.321Z,981.49
2019-05-19T03:16:36.499Z,981.49
2019-05-19T03:17:36.661Z,981.50
2019-05-19T03:18:36.826Z,981.52
2019-05-19T03:19:36.998Z,981.51
2019-05-19T03:20:37.169Z,981.51
2019-05-19T03:21:37.346Z,981.52
2019-05-19T03:22:37.515Z,981.54
2019-05-19T03:23:37.685Z,981.55
2019-05-19T03:24:37.853Z,981.54
2019-05-19T03:25:38.016Z,981.58
2019-05-19T03:26:38.182Z,981.58
2019-05-19T03:27:38.355Z,981.57
2019-05-19T03:28:38.524Z,981.51
2019-05-19T03:29:38.689Z,981.54
2019-05-19T03:30:38.877Z,981.51
2019-05-19T03:31:41.553Z,981.52
2019-05-19T03:32:43.618Z,981.47
2019-05-19T03:33:39.417Z,981.51
2019-05-19T03:34:39.578Z,981.51
2019-05-19T03:35:42.130Z,981.48
2019-05-19T03:36:44.303Z,981.49
2019-05-19T03:37:43.527Z,981.47
2019-05-19T03:38:41.424Z,981.47
2019-05-19T03:39:40.382Z,981.51
2019-05-19T03:40:40.546Z,981.48
2019-05-19T03:41:45.246Z,981.49
2019-05-19T03:42:42.750Z,981.49
2019-05-19T03:43:45.471Z,981.54
2019-05-19T03:44:45.030Z,981.52
2019-05-19T03:45:44.333Z,981.55
2019-05-19T03:46:41.597Z,981.51
2019-05-19T03:47:41.741Z,981.53
2019-05-19T03:48:44.963Z,981.50
2019-05-19T03:49:44.990Z,981.49
2019-05-19T03:50:44.096Z,981.48
2019-05-19T03:51:42.346Z,981.48
2019-05-19T03:52:42.933Z,981.48
2019-05-19T03:53:42.736Z,981.46
2019-05-19T03:54:47.557Z,981.51
2019-05-19T03:55:43.116Z,981.49
2019-05-19T03:56:44.992Z,981.52
2019-05-19T03:57:43.409Z,981.53
2019-05-19T03:58:43.589Z,981.56
2019-05-19T03:59:43.759Z,981.56
2019-05-19T04:00:43.923Z,981.55
2019-05-19T04:01:44.089Z,981.56
2019-05-19T04:02:44.258Z,981.55
2019-05-19T04:03:44.433Z,981.51
2019-05-19T04:04:44.613Z,981.57
2019-05-19T04:05:44.851Z,981.57
2019-05-19T04:06:44.947Z,981.58
2019-05-19T04:07:45.124Z,981.59
2019-05-19T04:08:45.294Z,981.62
2019-05-19T04:09:45.459Z,981.64
2019-05-19T04:10:45.633Z,981.61
2019-05-19T04:11:45.798Z,981.65
2019-05-19T04:12:45.978Z,981.62
2019-05-19T04:13:46.168Z,981.65
2019-05-19T04:14:46.349Z,981.68
2019-05-19T04:15:46.506Z,981.69
2019-05-19T04:16:46.720Z,981.72
2019-05-19T04:17:46.890Z,981.73
2019-05-19T04:18:47.109Z,981.75
2019-05-19T04:19:47.218Z,981.73
2019-05-19T04:20:47.400Z,981.73
2019-05-19T04:21:49.535Z,981.75
2019-05-19T04:22:47.740Z,981.73
2019-05-19T04:23:47.913Z,981.72
2019-05-19T04:24:48.180Z,981.76
2019-05-19T04:25:48.246Z,981.74
2019-05-19T04:26:48.421Z,981.68
2019-05-19T04:27:48.591Z,981.73
2019-05-19T04:28:48.750Z,981.73
2019-05-19T04:29:48.940Z,981.70
2019-05-19T04:30:49.102Z,981.74
2019-05-19T04:31:49.273Z,981.73
2019-05-19T04:32:49.445Z,981.72
2019-05-19T04:33:49.618Z,981.70
2019-05-19T04:34:49.788Z,981.71
2019-05-19T04:35:49.962Z,981.72
2019-05-19T04:36:50.126Z,981.76
2019-05-19T04:37:50.296Z,981.75
2019-05-19T04:38:50.469Z,981.79
2019-05-19T04:39:50.638Z,981.79
2019-05-19T04:40:50.817Z,981.82
2019-05-19T04:41:50.990Z,981.82
2019-05-19T04:42:51.155Z,981.83
2019-05-19T04:43:51.327Z,981.86
2019-05-19T04:44:51.505Z,981.81
2019-05-19T04:45:51.675Z,981.84
2019-05-19T04:46:51.846Z,981.82
2019-05-19T04:47:52.013Z,981.83
2019-05-19T04:48:52.165Z,981.79
2019-05-19T04:49:52.348Z,981.81
2019-05-19T04:50:52.515Z,981.78
2019-05-19T04:52:05.992Z,981.73
2019-05-19T04:52:52.860Z,981.73
2019-05-19T04:53:53.030Z,981.73
2019-05-19T04:54:53.200Z,981.69
2019-05-19T04:55:53.378Z,981.68
2019-05-19T04:56:53.552Z,981.73
2019-05-19T04:57:53.712Z,981.72
2019-05-19T04:58:53.892Z,981.70
2019-05-19T04:59:54.051Z,981.70
2019-05-19T05:00:54.217Z,981.72
2019-05-19T05:01:54.383Z,981.76
2019-05-19T05:02:54.560Z,981.81
2019-05-19T05:03:54.719Z,981.79
2019-05-19T05:04:54.899Z,981.80
2019-05-19T05:05:55.059Z,981.78
2019-05-19T05:06:55.233Z,981.77
2019-05-19T05:07:55.402Z,981.76
2019-05-19T05:08:55.573Z,981.78
2019-05-19T05:09:55.744Z,981.75
2019-05-19T05:10:55.925Z,981.78
2019-05-19T05:11:56.084Z,981.79
2019-05-19T05:12:56.254Z,981.78
2019-05-19T05:13:56.422Z,981.82
2019-05-19T05:14:56.594Z,981.77
2019-05-19T05:15:56.757Z,981.77
2019-05-19T05:16:56.927Z,981.78
2019-05-19T05:17:57.097Z,981.74
2019-05-19T05:18:57.266Z,981.73
2019-05-19T05:19:57.439Z,981.74
2019-05-19T05:20:57.608Z,981.69
2019-05-19T05:21:57.768Z,981.72
2019-05-19T05:22:57.939Z,981.73
2019-05-19T05:23:58.102Z,981.71
2019-05-19T05:24:58.325Z,981.69
2019-05-19T05:25:58.450Z,981.68
2019-05-19T05:26:58.621Z,981.69
2019-05-19T05:27:58.793Z,981.73
2019-05-19T05:28:59.020Z,981.71
2019-05-19T05:29:59.130Z,981.73
2019-05-19T05:30:59.296Z,981.74
2019-05-19T05:31:59.454Z,981.77
2019-05-19T05:32:59.629Z,981.72
2019-05-19T05:33:59.806Z,981.71
2019-05-19T05:35:00.001Z,981.69
2019-05-19T05:36:00.159Z,981.71
2019-05-19T05:37:00.328Z,981.72
2019-05-19T05:38:00.491Z,981.70
2019-05-19T05:39:00.654Z,981.71
2019-05-19T05:40:00.823Z,981.68
2019-05-19T05:41:00.999Z,981.66
2019-05-19T05:42:01.212Z,981.67
2019-05-19T05:43:01.373Z,981.65
2019-05-19T05:44:01.546Z,981.69
2019-05-19T05:45:01.715Z,981.72
2019-05-19T05:46:01.895Z,981.74
2019-05-19T05:47:02.053Z,981.68
2019-05-19T05:48:02.331Z,981.72
2019-05-19T05:49:02.398Z,981.71
2019-05-19T05:50:02.594Z,981.75
2019-05-19T05:51:02.746Z,981.72
2019-05-19T05:52:02.923Z,981.73
2019-05-19T05:53:03.086Z,981.70
2019-05-19T05:54:03.259Z,981.75
2019-05-19T05:55:03.429Z,981.73
2019-05-19T05:56:03.593Z,981.70
2019-05-19T05:57:03.766Z,981.69
2019-05-19T05:58:03.936Z,981.69
2019-05-19T05:59:04.103Z,981.68
2019-05-19T06:00:04.275Z,981.65
2019-05-19T06:01:04.447Z,981.62
2019-05-19T06:02:04.610Z,981.58
2019-05-19T06:03:04.779Z,981.60
2019-05-19T06:04:04.952Z,981.60
2019-05-19T06:05:05.122Z,981.57
2019-05-19T06:06:05.301Z,981.55
2019-05-19T06:07:05.463Z,981.53
2019-05-19T06:08:05.637Z,981.55
2019-05-19T06:09:05.811Z,981.57
2019-05-19T06:10:06.345Z,981.58
2019-05-19T06:11:06.193Z,981.58
2019-05-19T06:12:06.364Z,981.59
2019-05-19T06:13:06.541Z,981.61
2019-05-19T06:14:06.710Z,981.66
2019-05-19T06:15:06.882Z,981.64
2019-05-19T06:16:07.087Z,981.63
2019-05-19T06:17:07.256Z,981.65
2019-05-19T06:18:07.430Z,981.69
2019-05-19T06:19:07.601Z,981.64
2019-05-19T06:20:08.175Z,981.65
2019-05-19T06:21:07.949Z,981.65
2019-05-19T06:22:08.122Z,981.62
2019-05-19T06:23:08.304Z,981.68
2019-05-19T06:24:08.479Z,981.64
2019-05-19T06:25:08.650Z,981.63
2019-05-19T06:26:08.827Z,981.61
2019-05-19T06:27:08.984Z,981.61
2019-05-19T06:28:09.158Z,981.57
2019-05-19T06:29:09.367Z,981.56
2019-05-19T06:30:09.551Z,981.54
2019-05-19T06:31:09.686Z,981.50
2019-05-19T06:32:09.854Z,981.52
2019-05-19T06:33:10.020Z,981.51
2019-05-19T06:34:10.188Z,981.52
2019-05-19T06:35:10.370Z,981.51
2019-05-19T06:36:10.536Z,981.51
2019-05-19T06:37:10.712Z,981.47
2019-05-19T06:38:10.879Z,981.48
2019-05-19T06:39:11.065Z,981.49
2019-05-19T06:40:11.236Z,981.51
2019-05-19T06:41:11.413Z,981.52
2019-05-19T06:42:11.579Z,981.50
2019-05-19T06:43:11.989Z,981.48
2019-05-19T06:44:11.862Z,981.49
2019-05-19T06:45:12.031Z,981.48
2019-05-19T06:46:12.193Z,981.48
2019-05-19T06:47:12.378Z,981.44
2019-05-19T06:48:12.585Z,981.46
2019-05-19T06:49:12.830Z,981.48
2019-05-19T06:50:12.857Z,981.48
2019-05-19T06:51:13.025Z,981.47
2019-05-19T06:52:13.196Z,981.53
2019-05-19T06:53:14.708Z,981.48
2019-05-19T06:54:13.712Z,981.51
2019-05-19T06:55:13.678Z,981.54
2019-05-19T06:56:13.838Z,981.54
2019-05-19T06:57:14.028Z,981.51
2019-05-19T06:58:14.202Z,981.52
2019-05-19T06:59:14.372Z,981.54
2019-05-19T07:00:14.548Z,981.50
2019-05-19T07:01:14.709Z,981.53
2019-05-19T07:02:14.885Z,981.51
2019-05-19T07:03:15.065Z,981.51
2019-05-19T07:04:15.535Z,981.49
2019-05-19T07:05:15.392Z,981.50
2019-05-19T07:06:15.570Z,981.47
2019-05-19T07:07:15.738Z,981.52
2019-05-19T07:08:16.220Z,981.49
2019-05-19T07:09:16.104Z,981.48
2019-05-19T07:10:16.262Z,981.50
2019-05-19T07:11:16.442Z,981.52
2019-05-19T07:12:16.601Z,981.48
2019-05-19T07:13:16.774Z,981.44
2019-05-19T07:14:17.084Z,981.43
2019-05-19T07:15:17.236Z,981.41
2019-05-19T07:16:17.308Z,981.41
2019-05-19T07:17:17.491Z,981.41
2019-05-19T07:18:17.715Z,981.40
2019-05-19T07:19:17.873Z,981.37
2019-05-19T07:20:18.034Z,981.35
2019-05-19T07:21:18.398Z,981.37
2019-05-19T07:22:18.362Z,981.40
2019-05-19T07:23:27.944Z,981.37
2019-05-19T07:24:18.714Z,981.36
2019-05-19T07:25:18.901Z,981.35
2019-05-19T07:26:19.248Z,981.38
2019-05-19T07:27:19.267Z,981.33
2019-05-19T07:28:19.451Z,981.32
2019-05-19T07:29:19.622Z,981.35
2019-05-19T07:30:19.796Z,981.37
2019-05-19T07:31:19.988Z,981.32
2019-05-19T07:32:20.814Z,981.35
2019-05-19T07:33:20.442Z,981.37
2019-05-19T07:34:20.632Z,981.39
2019-05-19T07:35:20.765Z,981.38
2019-05-19T07:36:20.969Z,981.36
2019-05-19T07:37:21.149Z,981.37
2019-05-19T07:38:21.337Z,981.38
2019-05-19T07:39:21.516Z,981.34
2019-05-19T07:40:21.698Z,981.38
2019-05-19T07:41:21.880Z,981.37
2019-05-19T07:42:22.068Z,981.40
2019-05-19T07:43:22.312Z,981.41
2019-05-19T07:44:22.442Z,981.44
2019-05-19T07:45:22.674Z,981.42
2019-05-19T07:46:22.838Z,981.43
2019-05-19T07:47:23.029Z,981.41
2019-05-19T07:48:23.208Z,981.42
2019-05-19T07:49:23.418Z,981.40
2019-05-19T07:50:23.588Z,981.34
2019-05-19T07:51:23.763Z,981.35
2019-05-19T07:52:23.943Z,981.35
2019-05-19T07:53:24.169Z,981.39
2019-05-19T07:54:24.361Z,981.40
2019-05-19T07:55:24.549Z,981.46
2019-05-19T07:56:24.735Z,981.57
2019-05-19T07:57:24.930Z,981.88
2019-05-19T07:58:25.105Z,982.10
2019-05-19T07:59:25.276Z,982.30
2019-05-19T08:00:25.469Z,982.35
2019-05-19T08:01:25.649Z,982.30
2019-05-19T08:02:25.837Z,982.28
2019-05-19T08:03:26.020Z,982.35
2019-05-19T08:04:26.202Z,982.28
2019-05-19T08:05:26.397Z,982.34
2019-05-19T08:06:26.573Z,982.32
2019-05-19T08:07:26.763Z,982.26
2019-05-19T08:08:26.954Z,982.36
2019-05-19T08:09:27.127Z,982.27
2019-05-19T08:10:27.451Z,982.21
2019-05-19T08:11:27.503Z,982.22
2019-05-19T08:12:27.688Z,982.16
2019-05-19T08:13:27.868Z,982.21
2019-05-19T08:14:28.054Z,982.21
2019-05-19T08:15:28.235Z,982.21
2019-05-19T08:16:28.418Z,982.18
2019-05-19T08:17:28.609Z,982.17
2019-05-19T08:18:28.809Z,982.19
2019-05-19T08:19:29.002Z,982.19
2019-05-19T08:20:29.191Z,982.07
2019-05-19T08:21:29.360Z,982.05
2019-05-19T08:22:29.546Z,982.09
2019-05-19T08:23:29.742Z,982.08
2019-05-19T08:24:29.918Z,982.11
2019-05-19T08:25:30.174Z,982.13
2019-05-19T08:26:30.282Z,982.05
2019-05-19T08:27:30.606Z,982.04
2019-05-19T08:28:30.634Z,982.09
2019-05-19T08:29:31.099Z,982.04
2019-05-19T08:30:31.499Z,982.00
2019-05-19T08:31:31.238Z,981.99
2019-05-19T08:32:31.652Z,981.97
2019-05-19T08:33:31.577Z,981.97
2019-05-19T08:34:31.826Z,981.97
2019-05-19T08:35:33.341Z,981.93
2019-05-19T08:36:32.235Z,981.94
2019-05-19T08:37:32.421Z,981.91
2019-05-19T08:38:32.454Z,981.91
2019-05-19T08:39:33.169Z,981.89
2019-05-19T08:40:32.675Z,981.98
2019-05-19T08:41:33.604Z,981.96
2019-05-19T08:42:33.884Z,981.95
2019-05-19T08:43:33.607Z,981.92
2019-05-19T08:44:33.868Z,981.92
2019-05-19T08:45:36.799Z,981.93
2019-05-19T08:46:35.585Z,981.87
2019-05-19T08:47:34.537Z,981.88
2019-05-19T08:48:35.554Z,981.93
2019-05-19T08:49:34.497Z,981.95
2019-05-19T08:50:34.506Z,981.89
2019-05-19T08:51:35.118Z,981.81
2019-05-19T08:52:36.487Z,981.68
2019-05-19T08:53:36.104Z,981.45
2019-05-19T08:54:35.930Z,981.35
2019-05-19T08:55:37.900Z,981.35
2019-05-19T08:56:36.581Z,981.33
2019-05-19T08:57:37.615Z,981.30
2019-05-19T08:58:36.117Z,981.28
2019-05-19T08:59:37.483Z,981.27
2019-05-19T09:00:38.558Z,981.24
2019-05-19T09:01:36.558Z,981.20
2019-05-19T09:02:37.378Z,981.18
2019-05-19T09:03:36.853Z,981.18
2019-05-19T09:04:37.052Z,981.20
2019-05-19T09:05:37.321Z,981.18
2019-05-19T09:06:38.172Z,981.21
2019-05-19T09:07:40.260Z,981.20
2019-05-19T09:08:38.316Z,981.21
2019-05-19T09:09:39.744Z,981.16
2019-05-19T09:10:39.255Z,981.15
2019-05-19T09:11:38.794Z,981.15
2019-05-19T09:12:38.485Z,981.14
2019-05-19T09:13:39.816Z,981.10
2019-05-19T09:14:38.904Z,981.12
2019-05-19T09:15:39.011Z,981.11
2019-05-19T09:16:39.633Z,981.09
2019-05-19T09:17:39.287Z,981.09
2019-05-19T09:18:39.492Z,981.07
2019-05-19T09:19:40.646Z,981.06
2019-05-19T09:20:39.877Z,981.05
2019-05-19T09:21:40.153Z,981.05
2019-05-19T09:22:42.109Z,981.07
2019-05-19T09:23:41.347Z,981.10
2019-05-19T09:24:40.899Z,981.05
2019-05-19T09:25:41.303Z,981.05
2019-05-19T09:26:42.508Z,981.03
2019-05-19T09:27:41.815Z,981.01
2019-05-19T09:28:41.394Z,981.05
2019-05-19T09:29:42.604Z,981.00
2019-05-19T09:30:42.536Z,981.03
2019-05-19T09:31:41.890Z,981.01
2019-05-19T09:32:42.195Z,981.00
2019-05-19T09:33:42.217Z,981.00
2019-05-19T09:34:43.770Z,980.97
2019-05-19T09:35:43.593Z,981.01
2019-05-19T09:36:44.577Z,980.98
2019-05-19T09:37:44.293Z,980.96
2019-05-19T09:38:43.665Z,980.95
2019-05-19T09:39:43.324Z,980.97
2019-05-19T09:40:43.512Z,980.97
2019-05-19T09:41:43.694Z,980.99
2019-05-19T09:42:43.890Z,980.96
2019-05-19T09:43:44.810Z,981.00
2019-05-19T09:44:45.414Z,980.99
2019-05-19T09:45:45.218Z,980.97
2019-05-19T09:46:44.809Z,980.98
2019-05-19T09:47:46.620Z,980.94
2019-05-19T09:48:44.949Z,980.94
2019-05-19T09:49:45.185Z,980.94
2019-05-19T09:50:45.362Z,980.71
2019-05-19T09:51:45.838Z,980.88
2019-05-19T09:52:46.614Z,980.65
2019-05-19T09:53:46.541Z,980.66
2019-05-19T09:54:46.697Z,980.66
2019-05-19T09:55:46.266Z,980.72
2019-05-19T09:56:46.465Z,980.71
2019-05-19T09:57:46.649Z,980.70
2019-05-19T09:58:46.846Z,980.83
2019-05-19T09:59:47.033Z,980.98
2019-05-19T10:00:47.210Z,980.97
2019-05-19T10:01:48.629Z,981.00
2019-05-19T10:02:47.583Z,981.00
2019-05-19T10:03:47.760Z,980.96
2019-05-19T10:04:48.928Z,980.73
2019-05-19T10:05:48.196Z,980.75
2019-05-19T10:06:48.407Z,980.71
2019-05-19T10:07:48.544Z,980.67
2019-05-19T10:08:48.742Z,980.74
2019-05-19T10:09:48.938Z,980.69
2019-05-19T10:10:49.120Z,980.69
2019-05-19T10:11:50.934Z,980.67
2019-05-19T10:12:49.797Z,980.68
2019-05-19T10:13:49.977Z,980.89
2019-05-19T10:14:50.753Z,980.89
2019-05-19T10:15:50.423Z,980.85
2019-05-19T10:16:50.563Z,980.87
2019-05-19T10:17:50.786Z,980.87
2019-05-19T10:18:50.695Z,980.85
2019-05-19T10:19:52.062Z,980.80
2019-05-19T10:20:52.134Z,980.76
2019-05-19T10:21:51.295Z,980.77
2019-05-19T10:22:52.222Z,980.77
2019-05-19T10:23:51.995Z,980.74
2019-05-19T10:25:10.466Z,980.72
2019-05-19T10:25:51.948Z,980.78
2019-05-19T10:26:52.254Z,980.79
2019-05-19T10:27:52.366Z,980.76
2019-05-19T10:28:52.541Z,980.79
2019-05-19T10:29:53.289Z,980.79
2019-05-19T10:30:52.686Z,980.79
2019-05-19T10:31:54.514Z,980.77
2019-05-19T10:32:52.995Z,980.79
2019-05-19T10:33:53.187Z,980.76
2019-05-19T10:34:53.456Z,980.76
2019-05-19T10:35:53.475Z,980.72
2019-05-19T10:36:53.683Z,980.66
2019-05-19T10:37:53.957Z,980.66
2019-05-19T10:38:54.557Z,980.64
2019-05-19T10:39:55.327Z,980.64
2019-05-19T10:40:54.307Z,980.65
2019-05-19T10:41:54.812Z,980.70
2019-05-19T10:42:54.786Z,980.66
2019-05-19T10:43:54.884Z,980.67
2019-05-19T10:44:55.103Z,980.63
2019-05-19T10:45:55.168Z,980.60
2019-05-19T10:46:55.226Z,980.62
2019-05-19T10:47:55.455Z,980.65
2019-05-19T10:48:55.573Z,980.59
2019-05-19T10:49:55.614Z,980.62
2019-05-19T10:50:55.950Z,980.63
2019-05-19T10:51:58.061Z,980.58
2019-05-19T10:52:57.296Z,980.59
2019-05-19T10:53:56.608Z,980.58
2019-05-19T10:54:56.685Z,980.51
2019-05-19T10:55:56.928Z,980.54
2019-05-19T10:56:57.195Z,980.55
2019-05-19T10:57:57.305Z,980.53
2019-05-19T10:58:57.731Z,980.48
2019-05-19T10:59:57.632Z,980.54
2019-05-19T11:00:59.662Z,980.54
2019-05-19T11:01:58.136Z,980.43
2019-05-19T11:02:58.380Z,980.49
2019-05-19T11:03:58.707Z,980.47
2019-05-19T11:04:58.762Z,980.49
2019-05-19T11:05:58.971Z,980.57
2019-05-19T11:06:59.313Z,980.55
2019-05-19T11:07:59.133Z,980.50
2019-05-19T11:08:59.580Z,980.51
2019-05-19T11:09:59.794Z,980.45
2019-05-19T11:11:00.074Z,980.44
2019-05-19T11:12:00.175Z,980.39
2019-05-19T11:13:00.335Z,980.40
2019-05-19T11:14:00.405Z,980.37
2019-05-19T11:15:00.608Z,980.35
2019-05-19T11:16:00.712Z,980.33
2019-05-19T11:17:00.823Z,980.31
2019-05-19T11:18:00.811Z,980.29
2019-05-19T11:19:00.996Z,980.25
2019-05-19T11:20:01.264Z,980.26
2019-05-19T11:21:01.587Z,980.23
2019-05-19T11:22:02.021Z,980.27
2019-05-19T11:23:03.475Z,980.22
2019-05-19T11:24:02.094Z,980.19
2019-05-19T11:25:03.089Z,980.25
2019-05-19T11:26:02.950Z,980.21
2019-05-19T11:27:02.672Z,980.22
2019-05-19T11:28:02.868Z,980.21
2019-05-19T11:29:02.950Z,980.29
2019-05-19T11:30:03.104Z,980.32
2019-05-19T11:31:03.386Z,980.30
2019-05-19T11:32:03.603Z,980.28
2019-05-19T11:33:03.827Z,980.28
2019-05-19T11:34:04.110Z,980.29
2019-05-19T11:35:03.973Z,980.22
2019-05-19T11:36:04.267Z,980.19
2019-05-19T11:37:07.218Z,980.19
2019-05-19T11:38:04.471Z,980.21
2019-05-19T11:39:04.708Z,980.16
2019-05-19T11:40:04.928Z,980.14
2019-05-19T11:41:04.991Z,980.20
2019-05-19T11:42:05.509Z,980.20
2019-05-19T11:43:05.309Z,980.18
2019-05-19T11:44:05.502Z,980.14
2019-05-19T11:45:05.729Z,980.14
2019-05-19T11:46:05.970Z,980.10
2019-05-19T11:47:05.992Z,980.05
2019-05-19T11:48:05.965Z,980.04
2019-05-19T11:49:06.547Z,980.02
2019-05-19T11:50:06.235Z,980.02
2019-05-19T11:51:07.685Z,980.04
2019-05-19T11:52:06.702Z,979.97
2019-05-19T11:53:06.765Z,980.02
2019-05-19T11:54:07.648Z,980.01
2019-05-19T11:55:08.287Z,980.00
2019-05-19T11:56:10.985Z,980.02
2019-05-19T11:57:07.375Z,979.98
2019-05-19T11:58:07.556Z,979.99
2019-05-19T11:59:07.730Z,980.02
2019-05-19T12:00:07.935Z,979.99
2019-05-19T12:01:08.142Z,980.05
2019-05-19T12:02:08.288Z,980.03
2019-05-19T12:03:08.463Z,980.06
2019-05-19T12:04:08.715Z,980.06
2019-05-19T12:05:09.336Z,980.08
2019-05-19T12:06:11.565Z,980.03
2019-05-19T12:07:09.213Z,980.03
2019-05-19T12:08:09.394Z,979.98
2019-05-19T12:09:09.580Z,980.05
2019-05-19T12:10:10.404Z,980.01
2019-05-19T12:11:09.906Z,980.04
2019-05-19T12:12:11.363Z,980.07
2019-05-19T12:13:10.302Z,980.05
2019-05-19T12:14:10.500Z,980.03
2019-05-19T12:15:10.651Z,980.02
2019-05-19T12:16:11.581Z,980.02
2019-05-19T12:17:11.708Z,979.98
2019-05-19T12:18:11.211Z,979.96
2019-05-19T12:19:11.364Z,979.96
2019-05-19T12:20:11.545Z,979.95
2019-05-19T12:21:11.745Z,980.00
2019-05-19T12:22:11.915Z,979.99
2019-05-19T12:23:12.095Z,979.97
2019-05-19T12:24:12.269Z,979.94
2019-05-19T12:25:12.462Z,979.92
2019-05-19T12:26:22.726Z,979.95
2019-05-19T12:27:12.990Z,979.89
2019-05-19T12:28:12.952Z,979.91
2019-05-19T12:29:13.362Z,979.89
2019-05-19T12:30:13.546Z,979.85